RYR7005 LMML-LICT
Flight info
| Callsign | RYR7005 |
|---|---|
| Flight time | 0h 41m |
| Altitude | 24000 |
| Route | GZO M622 SOPIR/N0375F180 M622 MABOX M726 PIVOP |
| Aircraft | B738/M-SDE2E3FGHIRWXY/LB1 |
Departure
| Time | 2026-04-25 22:49 |
|---|---|
| Airport | Malta International Airport (LMML) |
Arrival
| Time | 2026-04-25 23:30 |
|---|---|
| Airport | Vincenzo Florio Airport Trapani-Birgi (LICT) |
| Time | Latitude | Longitude | Altitude | Speed | Heading |
|---|---|---|---|---|---|
| 2026-04-25 22:30 | 35.84809 | 14.49515 | 249 ft | 0 kts | 359° |
| 2026-04-25 22:38 | 35.84803 | 14.49515 | 249 ft | 2 kts | 1° |
| 2026-04-25 22:39 | 35.84788 | 14.49510 | 249 ft | 2 kts | 32° |
| 2026-04-25 22:39 | 35.84777 | 14.49498 | 249 ft | 2 kts | 54° |
| 2026-04-25 22:39 | 35.84773 | 14.49480 | 250 ft | 2 kts | 95° |
| 2026-04-25 22:39 | 35.84777 | 14.49464 | 250 ft | 0 kts | 129° |
| 2026-04-25 22:40 | 35.84782 | 14.49459 | 250 ft | 1 kts | 136° |
| 2026-04-25 22:40 | 35.84784 | 14.49457 | 250 ft | 0 kts | 134° |
| 2026-04-25 22:44 | 35.84783 | 14.49457 | 250 ft | 0 kts | 134° |
| 2026-04-25 22:45 | 35.84777 | 14.49465 | 250 ft | 2 kts | 134° |
| 2026-04-25 22:45 | 35.84752 | 14.49495 | 249 ft | 8 kts | 135° |
| 2026-04-25 22:45 | 35.84664 | 14.49574 | 249 ft | 19 kts | 167° |
| 2026-04-25 22:45 | 35.84540 | 14.49552 | 250 ft | 18 kts | 150° |
| 2026-04-25 22:46 | 35.84438 | 14.49635 | 250 ft | 16 kts | 161° |
| 2026-04-25 22:46 | 35.84339 | 14.49659 | 251 ft | 13 kts | 158° |
| 2026-04-25 22:46 | 35.84251 | 14.49701 | 251 ft | 13 kts | 158° |
| 2026-04-25 22:46 | 35.84182 | 14.49698 | 251 ft | 9 kts | 277° |
| 2026-04-25 22:47 | 35.84196 | 14.49676 | 251 ft | 0 kts | 314° |
| 2026-04-25 22:49 | 35.84197 | 14.49675 | 251 ft | 1 kts | 314° |
| 2026-04-25 22:49 | 35.84416 | 14.49403 | 252 ft | 89 kts | 314° |
| 2026-04-25 22:49 | 35.85040 | 14.48621 | 287 ft | 161 kts | 313° |
| 2026-04-25 22:49 | 35.85860 | 14.47593 | 1053 ft | 175 kts | 314° |
| 2026-04-25 22:50 | 35.86676 | 14.46520 | 2012 ft | 177 kts | 309° |
| 2026-04-25 22:50 | 35.87426 | 14.45279 | 2586 ft | 187 kts | 305° |
| 2026-04-25 22:50 | 35.88196 | 14.43905 | 3049 ft | 202 kts | 304° |
| 2026-04-25 22:50 | 35.89057 | 14.42451 | 3446 ft | 224 kts | 308° |
| 2026-04-25 22:51 | 35.90086 | 14.40938 | 3887 ft | 242 kts | 311° |
| 2026-04-25 22:51 | 35.91163 | 14.39411 | 4806 ft | 240 kts | 311° |
| 2026-04-25 22:51 | 35.92246 | 14.37831 | 5539 ft | 245 kts | 310° |
| 2026-04-25 22:51 | 35.93339 | 14.36182 | 6319 ft | 250 kts | 310° |
| 2026-04-25 22:52 | 35.94455 | 14.34494 | 6920 ft | 262 kts | 310° |
| 2026-04-25 22:52 | 35.95630 | 14.32729 | 7557 ft | 273 kts | 310° |
| 2026-04-25 22:52 | 35.96835 | 14.30922 | 8387 ft | 275 kts | 310° |
| 2026-04-25 22:52 | 35.97642 | 14.29711 | 8924 ft | 277 kts | 310° |
| 2026-04-25 22:53 | 35.99267 | 14.27270 | 10007 ft | 279 kts | 310° |
| 2026-04-25 22:53 | 36.00518 | 14.25389 | 10604 ft | 290 kts | 310° |
| 2026-04-25 22:53 | 36.01836 | 14.23408 | 11043 ft | 306 kts | 310° |
| 2026-04-25 22:53 | 36.03228 | 14.21333 | 11488 ft | 321 kts | 311° |
| 2026-04-25 22:54 | 36.04836 | 14.19384 | 12007 ft | 333 kts | 320° |
| 2026-04-25 22:54 | 36.06683 | 14.17654 | 12815 ft | 335 kts | 325° |
| 2026-04-25 22:54 | 36.08606 | 14.16024 | 13613 ft | 339 kts | 326° |
| 2026-04-25 22:54 | 36.10597 | 14.14358 | 14366 ft | 344 kts | 326° |
| 2026-04-25 22:55 | 36.12577 | 14.12674 | 15102 ft | 350 kts | 326° |
| 2026-04-25 22:55 | 36.14614 | 14.10909 | 15850 ft | 355 kts | 325° |
| 2026-04-25 22:55 | 36.16617 | 14.09151 | 16575 ft | 360 kts | 325° |
| 2026-04-25 22:55 | 36.18681 | 14.07326 | 17327 ft | 364 kts | 324° |
| 2026-04-25 22:56 | 36.20767 | 14.05474 | 18039 ft | 368 kts | 325° |
| 2026-04-25 22:56 | 36.22867 | 14.03607 | 18751 ft | 372 kts | 324° |
| 2026-04-25 22:56 | 36.24955 | 14.01748 | 19456 ft | 375 kts | 324° |
| 2026-04-25 22:56 | 36.27067 | 13.99870 | 20421 ft | 370 kts | 324° |
| 2026-04-25 22:57 | 36.29140 | 13.98025 | 21319 ft | 366 kts | 324° |
| 2026-04-25 22:57 | 36.31205 | 13.96188 | 22080 ft | 365 kts | 324° |
| 2026-04-25 22:57 | 36.33266 | 13.94351 | 22879 ft | 363 kts | 324° |
| 2026-04-25 22:57 | 36.35296 | 13.92541 | 23632 ft | 361 kts | 324° |
| 2026-04-25 22:58 | 36.37355 | 13.90704 | 24060 ft | 363 kts | 324° |
| 2026-04-25 22:58 | 36.39393 | 13.88884 | 24108 ft | 362 kts | 324° |
| 2026-04-25 22:58 | 36.41430 | 13.87064 | 24111 ft | 360 kts | 324° |
| 2026-04-25 22:58 | 36.43466 | 13.85243 | 24111 ft | 360 kts | 324° |
| 2026-04-25 22:59 | 36.45507 | 13.83417 | 24111 ft | 359 kts | 324° |
| 2026-04-25 22:59 | 36.47527 | 13.81609 | 24111 ft | 360 kts | 324° |
| 2026-04-25 22:59 | 36.49564 | 13.79784 | 24111 ft | 360 kts | 324° |
| 2026-04-25 22:59 | 36.51593 | 13.77965 | 24111 ft | 359 kts | 324° |
| 2026-04-25 23:00 | 36.53626 | 13.76141 | 24111 ft | 359 kts | 324° |
| 2026-04-25 23:00 | 36.55651 | 13.74324 | 24110 ft | 359 kts | 324° |
| 2026-04-25 23:00 | 36.57664 | 13.72516 | 24112 ft | 360 kts | 324° |
| 2026-04-25 23:00 | 36.59695 | 13.70691 | 24111 ft | 359 kts | 324° |
| 2026-04-25 23:01 | 36.61727 | 13.68863 | 24111 ft | 360 kts | 324° |
| 2026-04-25 23:01 | 36.63739 | 13.67052 | 24112 ft | 359 kts | 324° |
| 2026-04-25 23:01 | 36.65773 | 13.65220 | 24112 ft | 360 kts | 324° |
| 2026-04-25 23:01 | 36.67791 | 13.63402 | 24112 ft | 359 kts | 324° |
| 2026-04-25 23:02 | 36.69841 | 13.61554 | 24110 ft | 359 kts | 324° |
| 2026-04-25 23:02 | 36.71862 | 13.59730 | 24112 ft | 360 kts | 324° |
| 2026-04-25 23:02 | 36.73879 | 13.57910 | 24111 ft | 360 kts | 324° |
| 2026-04-25 23:02 | 36.75904 | 13.56080 | 24113 ft | 360 kts | 324° |
| 2026-04-25 23:03 | 36.77954 | 13.54227 | 24111 ft | 361 kts | 323° |
| 2026-04-25 23:03 | 36.79978 | 13.52395 | 24111 ft | 360 kts | 324° |
| 2026-04-25 23:03 | 36.82000 | 13.50564 | 24112 ft | 361 kts | 324° |
| 2026-04-25 23:03 | 36.84027 | 13.48728 | 24112 ft | 361 kts | 324° |
| 2026-04-25 23:04 | 36.86053 | 13.46892 | 24111 ft | 362 kts | 324° |
| 2026-04-25 23:04 | 36.87416 | 13.45656 | 24111 ft | 361 kts | 324° |
| 2026-04-25 23:04 | 36.90129 | 13.43194 | 24113 ft | 361 kts | 324° |
| 2026-04-25 23:04 | 36.92153 | 13.41355 | 24111 ft | 362 kts | 324° |
| 2026-04-25 23:05 | 36.94195 | 13.39499 | 24111 ft | 361 kts | 324° |
| 2026-04-25 23:05 | 36.96233 | 13.37645 | 24111 ft | 361 kts | 324° |
| 2026-04-25 23:05 | 36.98278 | 13.35784 | 24111 ft | 361 kts | 324° |
| 2026-04-25 23:05 | 37.00276 | 13.33964 | 24111 ft | 361 kts | 323° |
| 2026-04-25 23:06 | 37.02317 | 13.32105 | 24112 ft | 362 kts | 323° |
| 2026-04-25 23:06 | 37.04365 | 13.30237 | 24111 ft | 362 kts | 323° |
| 2026-04-25 23:06 | 37.06403 | 13.28377 | 24112 ft | 361 kts | 323° |
| 2026-04-25 23:06 | 37.08420 | 13.26534 | 24112 ft | 361 kts | 323° |
| 2026-04-25 23:07 | 37.10473 | 13.24658 | 24113 ft | 361 kts | 323° |
| 2026-04-25 23:07 | 37.12506 | 13.22836 | 24099 ft | 361 kts | 325° |
| 2026-04-25 23:07 | 37.14673 | 13.21195 | 24085 ft | 358 kts | 333° |
| 2026-04-25 23:07 | 37.16987 | 13.20087 | 24106 ft | 361 kts | 344° |
| 2026-04-25 23:08 | 37.19454 | 13.19500 | 24112 ft | 363 kts | 353° |
| 2026-04-25 23:08 | 37.21972 | 13.19259 | 24113 ft | 363 kts | 356° |
| 2026-04-25 23:08 | 37.24504 | 13.19169 | 24112 ft | 363 kts | 358° |
| 2026-04-25 23:08 | 37.27048 | 13.19134 | 24111 ft | 363 kts | 359° |
| 2026-04-25 23:09 | 37.29544 | 13.19114 | 24112 ft | 363 kts | 359° |
| 2026-04-25 23:09 | 37.32075 | 13.19092 | 24113 ft | 363 kts | 359° |
| 2026-04-25 23:09 | 37.34606 | 13.19063 | 24112 ft | 363 kts | 359° |
| 2026-04-25 23:09 | 37.37127 | 13.19027 | 24111 ft | 356 kts | 359° |
| 2026-04-25 23:10 | 37.39571 | 13.18986 | 24110 ft | 348 kts | 359° |
| 2026-04-25 23:10 | 37.42002 | 13.18942 | 24027 ft | 352 kts | 358° |
| 2026-04-25 23:10 | 37.44435 | 13.18788 | 23727 ft | 350 kts | 353° |
| 2026-04-25 23:10 | 37.46797 | 13.18163 | 23308 ft | 346 kts | 340° |
| 2026-04-25 23:11 | 37.48972 | 13.16867 | 22881 ft | 342 kts | 328° |
| 2026-04-25 23:11 | 37.50873 | 13.15127 | 22459 ft | 339 kts | 320° |
| 2026-04-25 23:11 | 37.52570 | 13.13104 | 22043 ft | 336 kts | 313° |
| 2026-04-25 23:11 | 37.54071 | 13.10863 | 21627 ft | 340 kts | 308° |
| 2026-04-25 23:12 | 37.55523 | 13.08478 | 21198 ft | 343 kts | 307° |
| 2026-04-25 23:12 | 37.56939 | 13.06097 | 20774 ft | 340 kts | 307° |
| 2026-04-25 23:12 | 37.58353 | 13.03721 | 20354 ft | 337 kts | 307° |
| 2026-04-25 23:12 | 37.59745 | 13.01406 | 20067 ft | 330 kts | 307° |
| 2026-04-25 23:13 | 37.61131 | 12.99116 | 19772 ft | 323 kts | 307° |
| 2026-04-25 23:13 | 37.62494 | 12.96878 | 19398 ft | 319 kts | 307° |
| 2026-04-25 23:13 | 37.63840 | 12.94671 | 18993 ft | 313 kts | 307° |
| 2026-04-25 23:13 | 37.65154 | 12.92521 | 18588 ft | 307 kts | 307° |
| 2026-04-25 23:14 | 37.66436 | 12.90422 | 18197 ft | 302 kts | 307° |
| 2026-04-25 23:14 | 37.67714 | 12.88329 | 17799 ft | 298 kts | 307° |
| 2026-04-25 23:14 | 37.68972 | 12.86270 | 17375 ft | 294 kts | 307° |
| 2026-04-25 23:14 | 37.70210 | 12.84244 | 16895 ft | 293 kts | 308° |
| 2026-04-25 23:15 | 37.71462 | 12.82194 | 16424 ft | 292 kts | 308° |
| 2026-04-25 23:15 | 37.72701 | 12.80164 | 15968 ft | 291 kts | 307° |
| 2026-04-25 23:15 | 37.73936 | 12.78138 | 15490 ft | 289 kts | 307° |
| 2026-04-25 23:15 | 37.75145 | 12.76154 | 15026 ft | 288 kts | 307° |
| 2026-04-25 23:16 | 37.76364 | 12.74153 | 14568 ft | 287 kts | 308° |
| 2026-04-25 23:16 | 37.77578 | 12.72159 | 14096 ft | 285 kts | 308° |
| 2026-04-25 23:16 | 37.78794 | 12.70162 | 13624 ft | 283 kts | 308° |
| 2026-04-25 23:16 | 37.79984 | 12.68205 | 13156 ft | 281 kts | 308° |
| 2026-04-25 23:17 | 37.81165 | 12.66263 | 12698 ft | 279 kts | 308° |
| 2026-04-25 23:17 | 37.82344 | 12.64320 | 12232 ft | 277 kts | 308° |
| 2026-04-25 23:17 | 37.83515 | 12.62392 | 11766 ft | 275 kts | 308° |
| 2026-04-25 23:17 | 37.84671 | 12.60484 | 11298 ft | 274 kts | 308° |
| 2026-04-25 23:18 | 37.85822 | 12.58587 | 10837 ft | 272 kts | 308° |
| 2026-04-25 23:18 | 37.86969 | 12.56693 | 10370 ft | 270 kts | 308° |
| 2026-04-25 23:18 | 37.88106 | 12.54814 | 9900 ft | 268 kts | 308° |
| 2026-04-25 23:18 | 37.89241 | 12.52939 | 9430 ft | 266 kts | 308° |
| 2026-04-25 23:19 | 37.90351 | 12.51106 | 8967 ft | 265 kts | 308° |
| 2026-04-25 23:19 | 37.91514 | 12.49324 | 8497 ft | 263 kts | 315° |
| 2026-04-25 23:19 | 37.92953 | 12.47884 | 8198 ft | 260 kts | 328° |
| 2026-04-25 23:19 | 37.94499 | 12.46704 | 8188 ft | 265 kts | 330° |
| 2026-04-25 23:20 | 37.96102 | 12.45506 | 8186 ft | 266 kts | 329° |
| 2026-04-25 23:20 | 37.97681 | 12.44286 | 8181 ft | 265 kts | 328° |
| 2026-04-25 23:20 | 37.99237 | 12.43051 | 8179 ft | 265 kts | 328° |
| 2026-04-25 23:20 | 38.00794 | 12.41802 | 8177 ft | 265 kts | 328° |
| 2026-04-25 23:21 | 38.02362 | 12.40540 | 8179 ft | 265 kts | 328° |
| 2026-04-25 23:21 | 38.03933 | 12.39276 | 8178 ft | 265 kts | 328° |
| 2026-04-25 23:21 | 38.05479 | 12.38033 | 7986 ft | 268 kts | 328° |
| 2026-04-25 23:21 | 38.07067 | 12.36757 | 7485 ft | 268 kts | 328° |
| 2026-04-25 23:22 | 38.08618 | 12.35511 | 7047 ft | 264 kts | 328° |
| 2026-04-25 23:22 | 38.10164 | 12.34269 | 6664 ft | 260 kts | 327° |
| 2026-04-25 23:22 | 38.11699 | 12.33036 | 6270 ft | 259 kts | 327° |
| 2026-04-25 23:23 | 38.14344 | 12.30195 | 5691 ft | 245 kts | 297° |
| 2026-04-25 23:23 | 38.14785 | 12.28118 | 5325 ft | 240 kts | 275° |
| 2026-04-25 23:23 | 38.14718 | 12.26031 | 4878 ft | 240 kts | 262° |
| 2026-04-25 23:23 | 38.14217 | 12.24029 | 4423 ft | 240 kts | 240° |
| 2026-04-25 23:24 | 38.13103 | 12.22454 | 3966 ft | 239 kts | 217° |
| 2026-04-25 23:24 | 38.11675 | 12.21403 | 3517 ft | 238 kts | 202° |
| 2026-04-25 23:24 | 38.10083 | 12.20944 | 3070 ft | 236 kts | 179° |
| 2026-04-25 23:24 | 38.08481 | 12.21324 | 2624 ft | 234 kts | 158° |
| 2026-04-25 23:25 | 38.07040 | 12.22253 | 2175 ft | 233 kts | 143° |
| 2026-04-25 23:25 | 38.05919 | 12.23676 | 1984 ft | 219 kts | 125° |
| 2026-04-25 23:25 | 38.05073 | 12.25198 | 1985 ft | 203 kts | 124° |
| 2026-04-25 23:25 | 38.04369 | 12.26656 | 1983 ft | 186 kts | 114° |
| 2026-04-25 23:26 | 38.03812 | 12.28121 | 1982 ft | 183 kts | 118° |
| 2026-04-25 23:26 | 38.03095 | 12.29466 | 1984 ft | 184 kts | 125° |
| 2026-04-25 23:26 | 38.02341 | 12.30776 | 1984 ft | 184 kts | 124° |
| 2026-04-25 23:26 | 38.01561 | 12.32068 | 1984 ft | 183 kts | 127° |
| 2026-04-25 23:27 | 38.00756 | 12.33321 | 1982 ft | 183 kts | 128° |
| 2026-04-25 23:27 | 37.99945 | 12.34570 | 1987 ft | 184 kts | 127° |
| 2026-04-25 23:27 | 37.99168 | 12.35862 | 2001 ft | 183 kts | 125° |
| 2026-04-25 23:27 | 37.98378 | 12.37147 | 1920 ft | 184 kts | 127° |
| 2026-04-25 23:28 | 37.97575 | 12.38399 | 1780 ft | 186 kts | 128° |
| 2026-04-25 23:28 | 37.96745 | 12.39682 | 1430 ft | 189 kts | 127° |
| 2026-04-25 23:28 | 37.95936 | 12.40987 | 1157 ft | 183 kts | 126° |
| 2026-04-25 23:28 | 37.95228 | 12.42160 | 1098 ft | 158 kts | 126° |
| 2026-04-25 23:29 | 37.94565 | 12.43230 | 828 ft | 150 kts | 127° |
| 2026-04-25 23:29 | 37.93922 | 12.44234 | 581 ft | 144 kts | 126° |
| 2026-04-25 23:29 | 37.93293 | 12.45246 | 450 ft | 144 kts | 126° |
| 2026-04-25 23:29 | 37.92699 | 12.46248 | 294 ft | 143 kts | 127° |
| 2026-04-25 23:30 | 37.92090 | 12.47243 | 99 ft | 142 kts | 127° |
| 2026-04-25 23:30 | 37.91498 | 12.48214 | 26 ft | 130 kts | 127° |
| 2026-04-25 23:30 | 37.91069 | 12.48911 | 27 ft | 69 kts | 128° |
| 2026-04-25 23:30 | 37.90842 | 12.49285 | 30 ft | 24 kts | 128° |
| 2026-04-25 23:31 | 37.90722 | 12.49412 | 31 ft | 22 kts | 152° |
| 2026-04-25 23:31 | 37.90584 | 12.49485 | 32 ft | 20 kts | 157° |
| 2026-04-25 23:31 | 37.90458 | 12.49544 | 34 ft | 17 kts | 175° |
| 2026-04-25 23:31 | 37.90371 | 12.49572 | 35 ft | 7 kts | 134° |
| 2026-04-25 23:32 | 37.90345 | 12.49617 | 34 ft | 5 kts | 187° |
| 2026-04-25 23:32 | 37.90328 | 12.49580 | 34 ft | 4 kts | 258° |
| 2026-04-25 23:32 | 37.90322 | 12.49549 | 34 ft | 0 kts | 257° |